sensor_id;sensor_type;location;lat;lon;timestamp;pressure;altitude;pressure_sealevel;temperature;humidity
15308;BME280;7755;52.208;6.964;2024-02-14T00:01:17;101010.38;;;7.92;100.00
15308;BME280;7755;52.208;6.964;2024-02-14T00:05:23;101000.00;;;7.89;100.00
15308;BME280;7755;52.208;6.964;2024-02-14T00:09:31;101000.81;;;7.89;100.00
15308;BME280;7755;52.208;6.964;2024-02-14T00:13:36;100988.97;;;7.84;100.00
15308;BME280;7755;52.208;6.964;2024-02-14T00:17:41;100982.50;;;7.85;100.00
15308;BME280;7755;52.208;6.964;2024-02-14T00:21:46;100981.06;;;7.82;100.00
15308;BME280;7755;52.208;6.964;2024-02-14T00:25:54;100981.53;;;7.79;100.00
15308;BME280;7755;52.208;6.964;2024-02-14T00:29:59;100975.06;;;7.80;100.00
15308;BME280;7755;52.208;6.964;2024-02-14T00:34:25;100980.88;;;7.77;100.00
15308;BME280;7755;52.208;6.964;2024-02-14T00:38:30;100981.56;;;7.73;100.00
15308;BME280;7755;52.208;6.964;2024-02-14T00:42:38;100975.91;;;7.74;100.00
15308;BME280;7755;52.208;6.964;2024-02-14T00:46:43;100968.22;;;7.71;100.00
15308;BME280;7755;52.208;6.964;2024-02-14T00:50:48;100957.59;;;7.70;100.00
15308;BME280;7755;52.208;6.964;2024-02-14T00:54:54;100953.03;;;7.70;100.00
15308;BME280;7755;52.208;6.964;2024-02-14T00:59:02;100949.50;;;7.70;100.00
15308;BME280;7755;52.208;6.964;2024-02-14T01:03:08;100953.63;;;7.72;100.00
15308;BME280;7755;52.208;6.964;2024-02-14T01:07:15;100953.84;;;7.71;100.00
15308;BME280;7755;52.208;6.964;2024-02-14T01:11:20;100955.50;;;7.72;100.00
15308;BME280;7755;52.208;6.964;2024-02-14T01:15:27;100947.19;;;7.73;100.00
15308;BME280;7755;52.208;6.964;2024-02-14T01:19:33;100937.63;;;7.71;100.00
15308;BME280;7755;52.208;6.964;2024-02-14T01:23:38;100936.75;;;7.77;100.00
15308;BME280;7755;52.208;6.964;2024-02-14T01:27:43;100934.50;;;7.74;100.00
15308;BME280;7755;52.208;6.964;2024-02-14T01:31:51;100923.66;;;7.74;100.00
15308;BME280;7755;52.208;6.964;2024-02-14T01:35:57;100916.97;;;7.76;100.00
15308;BME280;7755;52.208;6.964;2024-02-14T01:40:02;100919.47;;;7.78;100.00
15308;BME280;7755;52.208;6.964;2024-02-14T01:44:22;100919.03;;;7.81;100.00
15308;BME280;7755;52.208;6.964;2024-02-14T01:48:30;100911.53;;;7.83;100.00
15308;BME280;7755;52.208;6.964;2024-02-14T01:52:35;100900.88;;;7.88;100.00
15308;BME280;7755;52.208;6.964;2024-02-14T01:56:41;100895.69;;;7.86;100.00
15308;BME280;7755;52.208;6.964;2024-02-14T02:00:47;100896.91;;;7.90;100.00
15308;BME280;7755;52.208;6.964;2024-02-14T02:04:55;100893.13;;;7.91;100.00
15308;BME280;7755;52.208;6.964;2024-02-14T02:09:01;100901.91;;;7.93;100.00
15308;BME280;7755;52.208;6.964;2024-02-14T02:13:06;100888.13;;;7.95;100.00
15308;BME280;7755;52.208;6.964;2024-02-14T02:17:32;100887.91;;;7.97;100.00
15308;BME280;7755;52.208;6.964;2024-02-14T02:22:01;100887.31;;;7.94;100.00
15308;BME280;7755;52.208;6.964;2024-02-14T02:26:14;100881.44;;;7.98;100.00
15308;BME280;7755;52.208;6.964;2024-02-14T02:30:39;100879.13;;;8.01;100.00
15308;BME280;7755;52.208;6.964;2024-02-14T02:34:44;100876.38;;;8.08;100.00
15308;BME280;7755;52.208;6.964;2024-02-14T02:38:49;100877.22;;;8.08;100.00
15308;BME280;7755;52.208;6.964;2024-02-14T02:43:17;100875.09;;;8.10;100.00
15308;BME280;7755;52.208;6.964;2024-02-14T02:47:43;100871.97;;;8.13;100.00
15308;BME280;7755;52.208;6.964;2024-02-14T02:52:10;100873.41;;;8.16;100.00
15308;BME280;7755;52.208;6.964;2024-02-14T02:56:21;100867.31;;;8.20;100.00
15308;BME280;7755;52.208;6.964;2024-02-14T03:00:32;100875.59;;;8.26;100.00
15308;BME280;7755;52.208;6.964;2024-02-14T03:04:52;100865.59;;;8.26;100.00
15308;BME280;7755;52.208;6.964;2024-02-14T03:09:16;100863.06;;;8.31;100.00
15308;BME280;7755;52.208;6.964;2024-02-14T03:13:42;100864.72;;;8.32;100.00
15308;BME280;7755;52.208;6.964;2024-02-14T03:18:09;100875.34;;;8.34;100.00
15308;BME280;7755;52.208;6.964;2024-02-14T03:22:15;100871.16;;;8.38;100.00
15308;BME280;7755;52.208;6.964;2024-02-14T03:26:21;100865.09;;;8.42;100.00
15308;BME280;7755;52.208;6.964;2024-02-14T03:30:26;100870.03;;;8.45;100.00
15308;BME280;7755;52.208;6.964;2024-02-14T03:34:34;100866.44;;;8.52;100.00
15308;BME280;7755;52.208;6.964;2024-02-14T03:38:39;100871.22;;;8.56;100.00
15308;BME280;7755;52.208;6.964;2024-02-14T03:42:45;100872.84;;;8.57;100.00
15308;BME280;7755;52.208;6.964;2024-02-14T03:46:50;100871.56;;;8.60;100.00
15308;BME280;7755;52.208;6.964;2024-02-14T03:50:58;100870.09;;;8.64;100.00
15308;BME280;7755;52.208;6.964;2024-02-14T03:55:06;100872.97;;;8.69;100.00
15308;BME280;7755;52.208;6.964;2024-02-14T03:59:14;100867.53;;;8.69;100.00
15308;BME280;7755;52.208;6.964;2024-02-14T04:03:27;100868.72;;;8.73;100.00
15308;BME280;7755;52.208;6.964;2024-02-14T04:07:35;100875.22;;;8.72;100.00
15308;BME280;7755;52.208;6.964;2024-02-14T04:11:40;100877.25;;;8.77;100.00
15308;BME280;7755;52.208;6.964;2024-02-14T04:15:45;100871.84;;;8.77;100.00
15308;BME280;7755;52.208;6.964;2024-02-14T04:19:54;100867.63;;;8.81;100.00
15308;BME280;7755;52.208;6.964;2024-02-14T04:24:02;100870.72;;;8.84;100.00
15308;BME280;7755;52.208;6.964;2024-02-14T04:28:07;100881.78;;;8.83;100.00
15308;BME280;7755;52.208;6.964;2024-02-14T04:32:14;100891.72;;;8.89;100.00
15308;BME280;7755;52.208;6.964;2024-02-14T04:36:19;100884.59;;;8.94;100.00
15308;BME280;7755;52.208;6.964;2024-02-14T04:40:27;100886.44;;;8.94;100.00
15308;BME280;7755;52.208;6.964;2024-02-14T04:44:33;100892.31;;;8.91;100.00
15308;BME280;7755;52.208;6.964;2024-02-14T04:48:39;100896.03;;;8.96;100.00
15308;BME280;7755;52.208;6.964;2024-02-14T04:52:44;100898.75;;;8.96;100.00
15308;BME280;7755;52.208;6.964;2024-02-14T04:56:52;100898.91;;;9.01;100.00
15308;BME280;7755;52.208;6.964;2024-02-14T05:01:16;100905.97;;;9.02;100.00
15308;BME280;7755;52.208;6.964;2024-02-14T05:05:38;100901.97;;;9.05;100.00
15308;BME280;7755;52.208;6.964;2024-02-14T05:09:43;100906.34;;;9.06;100.00
15308;BME280;7755;52.208;6.964;2024-02-14T05:13:53;100914.94;;;9.03;100.00
15308;BME280;7755;52.208;6.964;2024-02-14T05:17:58;100918.41;;;9.10;100.00
15308;BME280;7755;52.208;6.964;2024-02-14T05:22:03;100921.72;;;9.12;100.00
15308;BME280;7755;52.208;6.964;2024-02-14T05:26:09;100929.63;;;9.14;100.00
15308;BME280;7755;52.208;6.964;2024-02-14T05:30:16;100929.19;;;9.17;100.00
15308;BME280;7755;52.208;6.964;2024-02-14T05:34:27;100927.06;;;9.19;100.00
15308;BME280;7755;52.208;6.964;2024-02-14T05:38:33;100939.13;;;9.23;100.00
15308;BME280;7755;52.208;6.964;2024-02-14T05:42:38;100927.47;;;9.22;100.00
15308;BME280;7755;52.208;6.964;2024-02-14T05:46:46;100949.53;;;9.26;100.00
15308;BME280;7755;52.208;6.964;2024-02-14T05:50:51;100947.44;;;9.28;100.00
15308;BME280;7755;52.208;6.964;2024-02-14T05:54:56;100938.00;;;9.30;100.00
15308;BME280;7755;52.208;6.964;2024-02-14T05:59:01;100948.84;;;9.30;100.00
15308;BME280;7755;52.208;6.964;2024-02-14T06:03:09;100960.06;;;9.34;100.00
15308;BME280;7755;52.208;6.964;2024-02-14T06:07:14;100950.28;;;9.33;100.00
15308;BME280;7755;52.208;6.964;2024-02-14T06:11:19;100956.91;;;9.37;100.00
15308;BME280;7755;52.208;6.964;2024-02-14T06:15:24;100958.34;;;9.40;100.00
15308;BME280;7755;52.208;6.964;2024-02-14T06:19:31;100963.53;;;9.41;100.00
15308;BME280;7755;52.208;6.964;2024-02-14T06:23:41;100970.66;;;9.42;100.00
15308;BME280;7755;52.208;6.964;2024-02-14T06:27:49;100982.94;;;9.45;100.00
15308;BME280;7755;52.208;6.964;2024-02-14T06:31:54;100979.97;;;9.46;100.00
15308;BME280;7755;52.208;6.964;2024-02-14T06:36:03;100987.88;;;9.48;100.00
15308;BME280;7755;52.208;6.964;2024-02-14T06:40:09;100980.81;;;9.47;100.00
15308;BME280;7755;52.208;6.964;2024-02-14T06:44:14;100989.34;;;9.50;100.00
15308;BME280;7755;52.208;6.964;2024-02-14T06:48:20;100990.75;;;9.53;100.00
15308;BME280;7755;52.208;6.964;2024-02-14T06:52:29;100995.00;;;9.49;100.00
15308;BME280;7755;52.208;6.964;2024-02-14T06:56:35;101001.63;;;9.53;100.00
15308;BME280;7755;52.208;6.964;2024-02-14T07:00:40;101007.63;;;9.55;100.00
15308;BME280;7755;52.208;6.964;2024-02-14T07:04:46;101019.47;;;9.61;100.00
15308;BME280;7755;52.208;6.964;2024-02-14T07:08:54;101025.72;;;9.61;100.00
15308;BME280;7755;52.208;6.964;2024-02-14T07:12:59;101029.19;;;9.68;100.00
15308;BME280;7755;52.208;6.964;2024-02-14T07:17:05;101033.38;;;9.71;100.00
15308;BME280;7755;52.208;6.964;2024-02-14T07:21:10;101037.75;;;9.72;100.00
15308;BME280;7755;52.208;6.964;2024-02-14T07:25:18;101038.34;;;9.74;100.00
15308;BME280;7755;52.208;6.964;2024-02-14T07:29:23;101031.41;;;9.78;100.00
15308;BME280;7755;52.208;6.964;2024-02-14T07:33:28;101034.94;;;9.78;100.00
15308;BME280;7755;52.208;6.964;2024-02-14T07:37:34;101049.34;;;9.79;100.00
15308;BME280;7755;52.208;6.964;2024-02-14T07:41:41;101051.47;;;9.77;100.00
15308;BME280;7755;52.208;6.964;2024-02-14T07:45:47;101052.06;;;9.79;100.00
15308;BME280;7755;52.208;6.964;2024-02-14T07:49:53;101057.03;;;9.82;100.00
15308;BME280;7755;52.208;6.964;2024-02-14T07:54:01;101065.19;;;9.82;100.00
15308;BME280;7755;52.208;6.964;2024-02-14T07:58:08;101056.59;;;9.85;100.00
15308;BME280;7755;52.208;6.964;2024-02-14T08:02:14;101064.59;;;9.80;100.00
15308;BME280;7755;52.208;6.964;2024-02-14T08:06:19;101062.63;;;9.87;100.00
15308;BME280;7755;52.208;6.964;2024-02-14T08:10:25;101067.47;;;9.85;100.00
15308;BME280;7755;52.208;6.964;2024-02-14T08:14:35;101062.78;;;9.92;100.00
15308;BME280;7755;52.208;6.964;2024-02-14T08:18:40;101070.69;;;9.94;100.00
15308;BME280;7755;52.208;6.964;2024-02-14T08:22:47;101066.72;;;9.96;100.00
15308;BME280;7755;52.208;6.964;2024-02-14T08:26:52;101078.16;;;9.98;100.00
15308;BME280;7755;52.208;6.964;2024-02-14T08:30:59;101072.50;;;10.00;100.00
15308;BME280;7755;52.208;6.964;2024-02-14T08:35:05;101076.03;;;10.00;100.00
15308;BME280;7755;52.208;6.964;2024-02-14T08:39:12;101086.47;;;10.03;100.00
15308;BME280;7755;52.208;6.964;2024-02-14T08:43:17;101079.16;;;10.04;100.00
15308;BME280;7755;52.208;6.964;2024-02-14T08:47:25;101090.38;;;10.07;100.00
15308;BME280;7755;52.208;6.964;2024-02-14T08:51:30;101090.13;;;10.09;100.00
15308;BME280;7755;52.208;6.964;2024-02-14T08:55:35;101097.69;;;10.07;100.00
15308;BME280;7755;52.208;6.964;2024-02-14T08:59:41;101094.16;;;10.06;100.00
15308;BME280;7755;52.208;6.964;2024-02-14T09:03:51;101107.41;;;10.15;100.00
15308;BME280;7755;52.208;6.964;2024-02-14T09:07:56;101106.75;;;10.19;100.00
15308;BME280;7755;52.208;6.964;2024-02-14T09:12:02;101113.91;;;10.13;100.00
15308;BME280;7755;52.208;6.964;2024-02-14T09:16:08;101106.75;;;10.19;100.00
15308;BME280;7755;52.208;6.964;2024-02-14T09:20:16;101108.00;;;10.23;100.00
15308;BME280;7755;52.208;6.964;2024-02-14T09:24:22;101113.19;;;10.25;100.00
15308;BME280;7755;52.208;6.964;2024-02-14T09:28:27;101120.03;;;10.27;100.00
15308;BME280;7755;52.208;6.964;2024-02-14T09:32:32;101108.34;;;10.27;100.00
15308;BME280;7755;52.208;6.964;2024-02-14T09:36:40;101117.72;;;10.31;100.00
15308;BME280;7755;52.208;6.964;2024-02-14T09:40:50;101122.25;;;10.37;100.00
15308;BME280;7755;52.208;6.964;2024-02-14T09:44:58;101123.91;;;10.38;100.00
15308;BME280;7755;52.208;6.964;2024-02-14T09:49:05;101116.72;;;10.44;100.00
15308;BME280;7755;52.208;6.964;2024-02-14T09:53:14;101129.25;;;10.45;100.00
15308;BME280;7755;52.208;6.964;2024-02-14T09:57:20;101121.44;;;10.48;100.00
15308;BME280;7755;52.208;6.964;2024-02-14T10:01:27;101128.53;;;10.49;100.00
15308;BME280;7755;52.208;6.964;2024-02-14T10:05:32;101132.72;;;10.52;100.00
15308;BME280;7755;52.208;6.964;2024-02-14T10:09:43;101140.38;;;10.55;100.00
15308;BME280;7755;52.208;6.964;2024-02-14T10:13:48;101144.09;;;10.60;100.00
15308;BME280;7755;52.208;6.964;2024-02-14T10:17:55;101140.06;;;10.63;100.00
15308;BME280;7755;52.208;6.964;2024-02-14T10:22:00;101130.25;;;10.62;100.00
15308;BME280;7755;52.208;6.964;2024-02-14T10:26:10;101132.75;;;10.63;100.00
15308;BME280;7755;52.208;6.964;2024-02-14T10:30:16;101151.56;;;10.65;100.00
15308;BME280;7755;52.208;6.964;2024-02-14T10:34:25;101151.69;;;10.70;100.00
15308;BME280;7755;52.208;6.964;2024-02-14T10:38:31;101142.09;;;10.68;100.00
15308;BME280;7755;52.208;6.964;2024-02-14T10:42:39;101151.69;;;10.70;100.00
15308;BME280;7755;52.208;6.964;2024-02-14T10:46:46;101159.97;;;10.75;100.00
15308;BME280;7755;52.208;6.964;2024-02-14T10:50:54;101155.16;;;10.77;100.00
15308;BME280;7755;52.208;6.964;2024-02-14T10:55:01;101156.59;;;10.80;100.00
15308;BME280;7755;52.208;6.964;2024-02-14T10:59:11;101150.91;;;10.81;100.00
15308;BME280;7755;52.208;6.964;2024-02-14T11:03:18;101157.56;;;10.85;100.00
15308;BME280;7755;52.208;6.964;2024-02-14T11:07:23;101155.59;;;10.74;100.00
15308;BME280;7755;52.208;6.964;2024-02-14T11:11:29;101147.00;;;10.77;100.00
15308;BME280;7755;52.208;6.964;2024-02-14T11:15:38;101159.97;;;10.75;100.00
15308;BME280;7755;52.208;6.964;2024-02-14T11:19:43;101154.09;;;10.78;100.00
15308;BME280;7755;52.208;6.964;2024-02-14T11:23:55;101158.72;;;10.78;100.00
15308;BME280;7755;52.208;6.964;2024-02-14T11:28:12;101160.59;;;10.77;100.00
15308;BME280;7755;52.208;6.964;2024-02-14T11:32:22;101163.31;;;10.77;100.00
15308;BME280;7755;52.208;6.964;2024-02-14T11:36:27;101160.59;;;10.77;100.00
15308;BME280;7755;52.208;6.964;2024-02-14T11:40:32;101160.38;;;10.79;100.00
15308;BME280;7755;52.208;6.964;2024-02-14T11:44:40;101148.19;;;10.81;100.00
15308;BME280;7755;52.208;6.964;2024-02-14T11:48:49;101157.16;;;10.82;100.00
15308;BME280;7755;52.208;6.964;2024-02-14T11:52:55;101148.31;;;10.86;100.00
15308;BME280;7755;52.208;6.964;2024-02-14T11:57:00;101148.47;;;10.91;100.00
15308;BME280;7755;52.208;6.964;2024-02-14T12:01:05;101145.28;;;10.94;100.00
15308;BME280;7755;52.208;6.964;2024-02-14T12:05:14;101151.53;;;10.95;100.00
15308;BME280;7755;52.208;6.964;2024-02-14T12:09:20;101147.31;;;10.99;100.00
15308;BME280;7755;52.208;6.964;2024-02-14T12:13:30;101133.59;;;11.06;100.00
15308;BME280;7755;52.208;6.964;2024-02-14T12:17:39;101128.41;;;11.16;100.00
15308;BME280;7755;52.208;6.964;2024-02-14T12:21:48;101126.06;;;11.19;100.00
15308;BME280;7755;52.208;6.964;2024-02-14T12:25:53;101126.41;;;11.23;100.00
15308;BME280;7755;52.208;6.964;2024-02-14T12:29:58;101127.94;;;11.31;100.00
15308;BME280;7755;52.208;6.964;2024-02-14T12:34:04;101126.41;;;11.35;100.00
15308;BME280;7755;52.208;6.964;2024-02-14T12:38:13;101127.84;;;11.37;100.00
15308;BME280;7755;52.208;6.964;2024-02-14T12:42:18;101127.00;;;11.37;100.00
15308;BME280;7755;52.208;6.964;2024-02-14T12:46:27;101131.16;;;11.39;100.00
15308;BME280;7755;52.208;6.964;2024-02-14T12:50:32;101134.09;;;11.38;100.00
15308;BME280;7755;52.208;6.964;2024-02-14T12:54:40;101134.09;;;11.38;100.00
15308;BME280;7755;52.208;6.964;2024-02-14T12:58:49;101134.72;;;11.40;100.00
15308;BME280;7755;52.208;6.964;2024-02-14T13:02:54;101127.84;;;11.37;100.00
15308;BME280;7755;52.208;6.964;2024-02-14T13:07:00;101134.72;;;11.40;100.00
15308;BME280;7755;52.208;6.964;2024-02-14T13:11:08;101126.31;;;11.41;100.00
15308;BME280;7755;52.208;6.964;2024-02-14T13:15:13;101107.84;;;11.43;100.00
15308;BME280;7755;52.208;6.964;2024-02-14T13:19:19;101111.38;;;11.44;100.00
15308;BME280;7755;52.208;6.964;2024-02-14T13:23:24;101113.41;;;11.48;100.00
15308;BME280;7755;52.208;6.964;2024-02-14T13:27:32;101117.09;;;11.54;100.00
15308;BME280;7755;52.208;6.964;2024-02-14T13:31:37;101110.06;;;11.58;100.00
15308;BME280;7755;52.208;6.964;2024-02-14T13:35:42;101119.81;;;11.66;100.00
15308;BME280;7755;52.208;6.964;2024-02-14T13:39:47;101093.97;;;11.68;100.00
15308;BME280;7755;52.208;6.964;2024-02-14T13:43:55;101096.34;;;11.76;100.00
15308;BME280;7755;52.208;6.964;2024-02-14T13:48:03;101105.72;;;11.81;100.00
15308;BME280;7755;52.208;6.964;2024-02-14T13:52:10;101105.72;;;11.81;100.00
15308;BME280;7755;52.208;6.964;2024-02-14T13:56:17;101113.50;;;11.77;100.00
15308;BME280;7755;52.208;6.964;2024-02-14T14:00:26;101117.56;;;11.74;100.00
15308;BME280;7755;52.208;6.964;2024-02-14T14:04:31;101120.28;;;11.74;100.00
15308;BME280;7755;52.208;6.964;2024-02-14T14:08:37;101110.69;;;11.72;100.00
15308;BME280;7755;52.208;6.964;2024-02-14T14:12:42;101111.72;;;11.71;100.00
15308;BME280;7755;52.208;6.964;2024-02-14T14:16:50;101097.06;;;11.72;100.00
15308;BME280;7755;52.208;6.964;2024-02-14T14:20:55;101101.09;;;11.69;100.00
15308;BME280;7755;52.208;6.964;2024-02-14T14:25:00;101096.00;;;11.73;100.00
15308;BME280;7755;52.208;6.964;2024-02-14T14:29:07;101096.00;;;11.73;100.00
15308;BME280;7755;52.208;6.964;2024-02-14T14:33:15;101095.38;;;11.71;100.00
15308;BME280;7755;52.208;6.964;2024-02-14T14:37:20;101093.50;;;11.71;100.00
15308;BME280;7755;52.208;6.964;2024-02-14T14:41:26;101094.56;;;11.70;100.00
15308;BME280;7755;52.208;6.964;2024-02-14T14:45:31;101095.19;;;11.72;100.00
15308;BME280;7755;52.208;6.964;2024-02-14T14:49:39;101095.19;;;11.72;100.00
15308;BME280;7755;52.208;6.964;2024-02-14T14:53:44;101097.66;;;11.74;100.00
15308;BME280;7755;52.208;6.964;2024-02-14T14:57:49;101099.78;;;11.72;100.00
15308;BME280;7755;52.208;6.964;2024-02-14T15:01:55;101092.66;;;11.71;100.00
15308;BME280;7755;52.208;6.964;2024-02-14T15:06:03;101099.78;;;11.72;100.00
15308;BME280;7755;52.208;6.964;2024-02-14T15:10:09;101100.00;;;11.70;100.00
15308;BME280;7755;52.208;6.964;2024-02-14T15:14:14;101098.13;;;11.71;100.00
15308;BME280;7755;52.208;6.964;2024-02-14T15:18:20;101094.69;;;11.75;100.00
15308;BME280;7755;52.208;6.964;2024-02-14T15:22:27;101103.34;;;11.72;100.00
15308;BME280;7755;52.208;6.964;2024-02-14T15:26:32;101106.28;;;11.71;100.00
15308;BME280;7755;52.208;6.964;2024-02-14T15:30:52;101099.91;;;11.65;100.00
15308;BME280;7755;52.208;6.964;2024-02-14T15:35:10;101098.34;;;11.69;100.00
15308;BME280;7755;52.208;6.964;2024-02-14T15:39:18;101098.84;;;11.66;100.00
15308;BME280;7755;52.208;6.964;2024-02-14T15:43:23;101105.59;;;11.64;100.00
15308;BME280;7755;52.208;6.964;2024-02-14T15:47:29;101106.41;;;11.64;100.00
15308;BME280;7755;52.208;6.964;2024-02-14T15:51:34;101106.06;;;11.61;100.00
15308;BME280;7755;52.208;6.964;2024-02-14T15:55:42;101105.25;;;11.60;100.00
15308;BME280;7755;52.208;6.964;2024-02-14T15:59:48;101106.91;;;11.61;100.00
15308;BME280;7755;52.208;6.964;2024-02-14T16:03:53;101098.34;;;11.58;100.00
15308;BME280;7755;52.208;6.964;2024-02-14T16:07:58;101101.09;;;11.58;100.00
15308;BME280;7755;52.208;6.964;2024-02-14T16:12:06;101093.75;;;11.58;100.00
15308;BME280;7755;52.208;6.964;2024-02-14T16:16:11;101099.19;;;11.58;100.00
15308;BME280;7755;52.208;6.964;2024-02-14T16:20:17;101089.97;;;11.59;100.00
15308;BME280;7755;52.208;6.964;2024-02-14T16:24:24;101094.81;;;11.57;100.00
15308;BME280;7755;52.208;6.964;2024-02-14T16:28:33;101085.94;;;11.62;100.00
15308;BME280;7755;52.208;6.964;2024-02-14T16:32:38;101089.47;;;11.62;100.00
15308;BME280;7755;52.208;6.964;2024-02-14T16:36:43;101083.78;;;11.64;100.00
15308;BME280;7755;52.208;6.964;2024-02-14T16:40:48;101079.91;;;11.60;100.00
15308;BME280;7755;52.208;6.964;2024-02-14T16:44:59;101085.13;;;11.61;100.00
15308;BME280;7755;52.208;6.964;2024-02-14T16:49:06;101087.34;;;11.64;100.00
15308;BME280;7755;52.208;6.964;2024-02-14T16:53:13;101085.22;;;11.66;100.00
15308;BME280;7755;52.208;6.964;2024-02-14T16:57:18;101088.28;;;11.70;100.00
15308;BME280;7755;52.208;6.964;2024-02-14T17:01:25;101087.97;;;11.66;100.00
15308;BME280;7755;52.208;6.964;2024-02-14T17:05:32;101095.06;;;11.67;100.00
15308;BME280;7755;52.208;6.964;2024-02-14T17:09:38;101092.91;;;11.69;100.00
15308;BME280;7755;52.208;6.964;2024-02-14T17:13:44;101100.13;;;11.75;100.00
15308;BME280;7755;52.208;6.964;2024-02-14T17:17:52;101107.25;;;11.76;100.00
15308;BME280;7755;52.208;6.964;2024-02-14T17:21:59;101100.13;;;11.75;100.00
15308;BME280;7755;52.208;6.964;2024-02-14T17:26:18;101111.41;;;11.79;100.00
15308;BME280;7755;52.208;6.964;2024-02-14T17:30:23;101109.03;;;11.83;100.00
15308;BME280;7755;52.208;6.964;2024-02-14T17:34:31;101120.75;;;11.83;100.00
15308;BME280;7755;52.208;6.964;2024-02-14T17:38:36;101122.53;;;11.89;100.00
15308;BME280;7755;52.208;6.964;2024-02-14T17:42:41;101119.81;;;11.89;100.00
15308;BME280;7755;52.208;6.964;2024-02-14T17:46:46;101126.91;;;11.90;100.00
15308;BME280;7755;52.208;6.964;2024-02-14T17:50:54;101130.25;;;11.92;100.00
15308;BME280;7755;52.208;6.964;2024-02-14T17:54:59;101136.84;;;11.96;100.00
15308;BME280;7755;52.208;6.964;2024-02-14T17:59:06;101140.66;;;11.95;100.00
15308;BME280;7755;52.208;6.964;2024-02-14T18:03:11;101156.19;;;11.95;100.00
15308;BME280;7755;52.208;6.964;2024-02-14T18:07:19;101164.34;;;11.95;100.00
15308;BME280;7755;52.208;6.964;2024-02-14T18:11:24;101165.44;;;11.94;100.00
15308;BME280;7755;52.208;6.964;2024-02-14T18:15:29;101168.72;;;11.96;100.00
15308;BME280;7755;52.208;6.964;2024-02-14T18:19:35;101170.38;;;11.97;100.00
15308;BME280;7755;52.208;6.964;2024-02-14T18:23:42;101173.94;;;11.97;100.00
15308;BME280;7755;52.208;6.964;2024-02-14T18:27:51;101167.66;;;11.97;100.00
15308;BME280;7755;52.208;6.964;2024-02-14T18:31:57;101174.56;;;11.99;100.00
15308;BME280;7755;52.208;6.964;2024-02-14T18:36:04;101167.78;;;12.02;100.00
15308;BME280;7755;52.208;6.964;2024-02-14T18:40:13;101171.91;;;12.05;100.00
15308;BME280;7755;52.208;6.964;2024-02-14T18:44:21;101177.38;;;12.05;100.00
15308;BME280;7755;52.208;6.964;2024-02-14T18:48:27;101171.34;;;12.02;100.00
15308;BME280;7755;52.208;6.964;2024-02-14T18:52:37;101175.13;;;12.01;100.00
15308;BME280;7755;52.208;6.964;2024-02-14T18:56:46;101164.22;;;12.01;100.00
15308;BME280;7755;52.208;6.964;2024-02-14T19:00:53;101172.41;;;12.01;100.00
15308;BME280;7755;52.208;6.964;2024-02-14T19:05:01;101177.59;;;12.03;100.00
15308;BME280;7755;52.208;6.964;2024-02-14T19:09:13;101178.69;;;12.02;100.00
15308;BME280;7755;52.208;6.964;2024-02-14T19:13:24;101175.13;;;12.01;100.00
15308;BME280;7755;52.208;6.964;2024-02-14T19:17:30;101170.75;;;12.00;100.00
15308;BME280;7755;52.208;6.964;2024-02-14T19:21:36;101177.59;;;12.03;100.00
15308;BME280;7755;52.208;6.964;2024-02-14T19:25:43;101174.88;;;12.03;100.00
15308;BME280;7755;52.208;6.964;2024-02-14T19:29:53;101183.88;;;12.03;100.00
15308;BME280;7755;52.208;6.964;2024-02-14T19:34:01;101182.59;;;12.06;100.00
15308;BME280;7755;52.208;6.964;2024-02-14T19:38:07;101197.06;;;12.07;100.00
15308;BME280;7755;52.208;6.964;2024-02-14T19:42:12;101187.56;;;12.09;100.00
15308;BME280;7755;52.208;6.964;2024-02-14T19:46:20;101190.88;;;12.11;100.00
15308;BME280;7755;52.208;6.964;2024-02-14T19:50:26;101187.56;;;12.09;100.00
15308;BME280;7755;52.208;6.964;2024-02-14T19:54:31;101192.78;;;12.11;100.00
15308;BME280;7755;52.208;6.964;2024-02-14T19:58:36;101181.41;;;12.14;100.00
15308;BME280;7755;52.208;6.964;2024-02-14T20:02:44;101194.78;;;12.15;100.00
15308;BME280;7755;52.208;6.964;2024-02-14T20:06:49;101186.38;;;12.17;100.00
15308;BME280;7755;52.208;6.964;2024-02-14T20:10:58;101197.28;;;12.17;100.00
15308;BME280;7755;52.208;6.964;2024-02-14T20:15:06;101200.00;;;12.17;100.00
15308;BME280;7755;52.208;6.964;2024-02-14T20:19:16;101202.59;;;12.12;100.00
15308;BME280;7755;52.208;6.964;2024-02-14T20:23:21;101207.59;;;12.15;100.00
15308;BME280;7755;52.208;6.964;2024-02-14T20:27:28;101208.16;;;12.17;100.00
15308;BME280;7755;52.208;6.964;2024-02-14T20:31:33;101202.25;;;12.20;100.00
15308;BME280;7755;52.208;6.964;2024-02-14T20:35:42;101205.31;;;12.23;100.00
15308;BME280;7755;52.208;6.964;2024-02-14T20:39:47;101203.19;;;12.25;100.00
15308;BME280;7755;52.208;6.964;2024-02-14T20:43:52;101207.59;;;12.26;100.00
15308;BME280;7755;52.208;6.964;2024-02-14T20:47:57;101203.66;;;12.22;100.00
15308;BME280;7755;52.208;6.964;2024-02-14T20:52:05;101200.44;;;12.25;100.00
15308;BME280;7755;52.208;6.964;2024-02-14T20:56:10;101207.47;;;12.21;100.00
15308;BME280;7755;52.208;6.964;2024-02-14T21:00:16;101205.81;;;12.20;100.00
15308;BME280;7755;52.208;6.964;2024-02-14T21:04:21;101212.91;;;12.21;100.00
15308;BME280;7755;52.208;6.964;2024-02-14T21:08:29;101228.44;;;12.21;100.00
15308;BME280;7755;52.208;6.964;2024-02-14T21:12:34;101226.78;;;12.20;100.00
15308;BME280;7755;52.208;6.964;2024-02-14T21:16:39;101225.72;;;12.21;100.00
15308;BME280;7755;52.208;6.964;2024-02-14T21:20:44;101222.25;;;12.25;100.00
15308;BME280;7755;52.208;6.964;2024-02-14T21:24:51;101221.69;;;12.23;100.00
15308;BME280;7755;52.208;6.964;2024-02-14T21:28:56;101222.50;;;12.24;100.00
15308;BME280;7755;52.208;6.964;2024-02-14T21:33:01;101222.75;;;12.22;100.00
15308;BME280;7755;52.208;6.964;2024-02-14T21:37:06;101230.56;;;12.19;100.00
15308;BME280;7755;52.208;6.964;2024-02-14T21:41:15;101228.09;;;12.17;100.00